sensor_id;sensor_type;location;lat;lon;timestamp;P1;durP1;ratioP1;P2;durP2;ratioP2
1220;SDS011;600;48.044;7.878;2022-10-30T00:00:55;7.00;;;4.00;;
1220;SDS011;600;48.044;7.878;2022-10-30T00:03:22;9.70;;;4.10;;
1220;SDS011;600;48.044;7.878;2022-10-30T00:05:49;7.50;;;4.50;;
1220;SDS011;600;48.044;7.878;2022-10-30T00:08:17;6.87;;;4.90;;
1220;SDS011;600;48.044;7.878;2022-10-30T00:10:48;5.67;;;4.43;;
1220;SDS011;600;48.044;7.878;2022-10-30T00:13:15;7.57;;;5.43;;
1220;SDS011;600;48.044;7.878;2022-10-30T00:15:45;12.27;;;5.23;;
1220;SDS011;600;48.044;7.878;2022-10-30T00:18:13;8.67;;;5.20;;
1220;SDS011;600;48.044;7.878;2022-10-30T00:20:40;7.57;;;5.40;;
1220;SDS011;600;48.044;7.878;2022-10-30T00:23:07;7.50;;;4.40;;
1220;SDS011;600;48.044;7.878;2022-10-30T00:25:34;6.47;;;4.50;;
1220;SDS011;600;48.044;7.878;2022-10-30T00:28:02;9.97;;;4.80;;
1220;SDS011;600;48.044;7.878;2022-10-30T00:30:29;7.30;;;4.57;;
1220;SDS011;600;48.044;7.878;2022-10-30T00:32:56;9.90;;;5.07;;
1220;SDS011;600;48.044;7.878;2022-10-30T00:35:23;9.73;;;4.50;;
1220;SDS011;600;48.044;7.878;2022-10-30T00:37:50;8.30;;;4.47;;
1220;SDS011;600;48.044;7.878;2022-10-30T00:40:16;10.37;;;4.80;;
1220;SDS011;600;48.044;7.878;2022-10-30T00:42:43;9.13;;;4.40;;
1220;SDS011;600;48.044;7.878;2022-10-30T00:45:12;7.87;;;4.10;;
1220;SDS011;600;48.044;7.878;2022-10-30T00:47:40;6.50;;;3.83;;
1220;SDS011;600;48.044;7.878;2022-10-30T00:50:10;6.60;;;4.10;;
1220;SDS011;600;48.044;7.878;2022-10-30T00:52:42;9.77;;;4.40;;
1220;SDS011;600;48.044;7.878;2022-10-30T00:55:16;9.90;;;4.77;;
1220;SDS011;600;48.044;7.878;2022-10-30T00:57:45;9.90;;;4.60;;
1220;SDS011;600;48.044;7.878;2022-10-30T01:00:14;12.10;;;3.57;;
1220;SDS011;600;48.044;7.878;2022-10-30T01:02:42;10.60;;;4.00;;
1220;SDS011;600;48.044;7.878;2022-10-30T01:05:09;4.77;;;4.00;;
1220;SDS011;600;48.044;7.878;2022-10-30T01:07:40;10.23;;;3.77;;
1220;SDS011;600;48.044;7.878;2022-10-30T01:10:07;8.50;;;3.90;;
1220;SDS011;600;48.044;7.878;2022-10-30T01:12:35;7.27;;;4.53;;
1220;SDS011;600;48.044;7.878;2022-10-30T01:15:02;7.50;;;3.77;;
1220;SDS011;600;48.044;7.878;2022-10-30T01:20:52;9.20;;;3.87;;
1220;SDS011;600;48.044;7.878;2022-10-30T01:23:44;8.97;;;4.20;;
1220;SDS011;600;48.044;7.878;2022-10-30T01:26:21;7.30;;;4.20;;
1220;SDS011;600;48.044;7.878;2022-10-30T01:29:12;8.27;;;4.37;;
1220;SDS011;600;48.044;7.878;2022-10-30T01:31:55;6.43;;;3.90;;
1220;SDS011;600;48.044;7.878;2022-10-30T01:34:36;5.60;;;3.97;;
1220;SDS011;600;48.044;7.878;2022-10-30T01:37:11;6.17;;;3.67;;
1220;SDS011;600;48.044;7.878;2022-10-30T01:39:42;5.87;;;3.30;;
1220;SDS011;600;48.044;7.878;2022-10-30T01:42:09;7.33;;;4.50;;
1220;SDS011;600;48.044;7.878;2022-10-30T01:44:51;5.83;;;3.87;;
1220;SDS011;600;48.044;7.878;2022-10-30T01:47:21;5.47;;;3.90;;
1220;SDS011;600;48.044;7.878;2022-10-30T01:50:04;6.40;;;4.20;;
1220;SDS011;600;48.044;7.878;2022-10-30T01:52:42;13.50;;;4.50;;
1220;SDS011;600;48.044;7.878;2022-10-30T01:55:20;5.80;;;3.53;;
1220;SDS011;600;48.044;7.878;2022-10-30T01:57:58;6.23;;;3.63;;
1220;SDS011;600;48.044;7.878;2022-10-30T02:00:31;5.17;;;3.93;;
1220;SDS011;600;48.044;7.878;2022-10-30T02:02:58;6.87;;;4.60;;
1220;SDS011;600;48.044;7.878;2022-10-30T02:05:29;7.50;;;4.47;;
1220;SDS011;600;48.044;7.878;2022-10-30T02:08:01;7.80;;;4.30;;
1220;SDS011;600;48.044;7.878;2022-10-30T02:10:28;6.10;;;3.53;;
1220;SDS011;600;48.044;7.878;2022-10-30T02:12:56;12.47;;;4.83;;
1220;SDS011;600;48.044;7.878;2022-10-30T02:15:23;6.03;;;3.60;;
1220;SDS011;600;48.044;7.878;2022-10-30T02:17:50;4.60;;;4.10;;
1220;SDS011;600;48.044;7.878;2022-10-30T02:20:18;6.20;;;3.80;;
1220;SDS011;600;48.044;7.878;2022-10-30T02:22:45;6.27;;;3.97;;
1220;SDS011;600;48.044;7.878;2022-10-30T02:25:12;5.90;;;3.50;;
1220;SDS011;600;48.044;7.878;2022-10-30T02:27:39;5.17;;;3.37;;
1220;SDS011;600;48.044;7.878;2022-10-30T02:30:07;5.43;;;3.50;;
1220;SDS011;600;48.044;7.878;2022-10-30T02:32:34;10.33;;;4.30;;
1220;SDS011;600;48.044;7.878;2022-10-30T02:35:01;6.50;;;4.00;;
1220;SDS011;600;48.044;7.878;2022-10-30T02:37:30;6.73;;;4.20;;
1220;SDS011;600;48.044;7.878;2022-10-30T02:39:59;8.47;;;4.43;;
1220;SDS011;600;48.044;7.878;2022-10-30T02:42:26;6.00;;;4.63;;
1220;SDS011;600;48.044;7.878;2022-10-30T02:44:53;10.90;;;4.23;;
1220;SDS011;600;48.044;7.878;2022-10-30T02:47:20;9.70;;;4.00;;
1220;SDS011;600;48.044;7.878;2022-10-30T02:49:46;7.80;;;3.70;;
1220;SDS011;600;48.044;7.878;2022-10-30T02:52:13;14.17;;;4.83;;
1220;SDS011;600;48.044;7.878;2022-10-30T02:54:41;5.93;;;4.47;;
1220;SDS011;600;48.044;7.878;2022-10-30T02:57:08;6.60;;;4.20;;
1220;SDS011;600;48.044;7.878;2022-10-30T02:59:35;9.97;;;4.50;;
1220;SDS011;600;48.044;7.878;2022-10-30T03:02:01;9.67;;;4.43;;
1220;SDS011;600;48.044;7.878;2022-10-30T03:04:28;6.70;;;4.20;;
1220;SDS011;600;48.044;7.878;2022-10-30T03:06:55;7.30;;;4.33;;
1220;SDS011;600;48.044;7.878;2022-10-30T03:09:21;6.83;;;4.27;;
1220;SDS011;600;48.044;7.878;2022-10-30T03:11:49;7.60;;;3.97;;
1220;SDS011;600;48.044;7.878;2022-10-30T03:14:16;6.20;;;4.63;;
1220;SDS011;600;48.044;7.878;2022-10-30T03:16:43;8.50;;;4.03;;
1220;SDS011;600;48.044;7.878;2022-10-30T03:19:10;6.70;;;4.50;;
1220;SDS011;600;48.044;7.878;2022-10-30T03:21:36;5.40;;;4.57;;
1220;SDS011;600;48.044;7.878;2022-10-30T03:24:03;6.93;;;4.67;;
1220;SDS011;600;48.044;7.878;2022-10-30T03:26:31;11.77;;;4.87;;
1220;SDS011;600;48.044;7.878;2022-10-30T03:28:59;9.30;;;4.70;;
1220;SDS011;600;48.044;7.878;2022-10-30T03:31:25;7.03;;;5.17;;
1220;SDS011;600;48.044;7.878;2022-10-30T03:33:52;8.43;;;5.17;;
1220;SDS011;600;48.044;7.878;2022-10-30T03:36:19;7.17;;;4.40;;
1220;SDS011;600;48.044;7.878;2022-10-30T03:38:46;7.43;;;4.20;;
1220;SDS011;600;48.044;7.878;2022-10-30T03:41:12;9.00;;;4.53;;
1220;SDS011;600;48.044;7.878;2022-10-30T03:43:39;5.77;;;4.23;;
1220;SDS011;600;48.044;7.878;2022-10-30T03:46:08;6.37;;;4.40;;
1220;SDS011;600;48.044;7.878;2022-10-30T03:48:35;8.57;;;4.20;;
1220;SDS011;600;48.044;7.878;2022-10-30T03:51:02;7.23;;;4.53;;
1220;SDS011;600;48.044;7.878;2022-10-30T03:53:29;9.27;;;4.77;;
1220;SDS011;600;48.044;7.878;2022-10-30T03:55:56;9.00;;;4.20;;
1220;SDS011;600;48.044;7.878;2022-10-30T03:58:24;8.03;;;4.30;;
1220;SDS011;600;48.044;7.878;2022-10-30T04:00:51;7.57;;;4.20;;
1220;SDS011;600;48.044;7.878;2022-10-30T04:03:20;6.13;;;3.93;;
1220;SDS011;600;48.044;7.878;2022-10-30T04:05:46;5.37;;;3.73;;
1220;SDS011;600;48.044;7.878;2022-10-30T04:08:15;6.53;;;4.03;;
1220;SDS011;600;48.044;7.878;2022-10-30T04:10:42;5.40;;;3.83;;
1220;SDS011;600;48.044;7.878;2022-10-30T04:13:09;6.03;;;3.93;;
1220;SDS011;600;48.044;7.878;2022-10-30T04:15:37;5.57;;;3.60;;
1220;SDS011;600;48.044;7.878;2022-10-30T04:18:04;4.87;;;3.63;;
1220;SDS011;600;48.044;7.878;2022-10-30T04:20:32;8.60;;;3.80;;
1220;SDS011;600;48.044;7.878;2022-10-30T04:23:00;3.73;;;3.10;;
1220;SDS011;600;48.044;7.878;2022-10-30T04:25:29;7.20;;;3.63;;
1220;SDS011;600;48.044;7.878;2022-10-30T04:27:56;7.53;;;4.00;;
1220;SDS011;600;48.044;7.878;2022-10-30T04:30:23;7.00;;;3.60;;
1220;SDS011;600;48.044;7.878;2022-10-30T04:32:51;8.77;;;3.30;;
1220;SDS011;600;48.044;7.878;2022-10-30T04:35:20;7.20;;;3.77;;
1220;SDS011;600;48.044;7.878;2022-10-30T04:37:52;7.97;;;3.63;;
1220;SDS011;600;48.044;7.878;2022-10-30T04:40:19;5.60;;;3.23;;
1220;SDS011;600;48.044;7.878;2022-10-30T04:42:46;5.83;;;4.20;;
1220;SDS011;600;48.044;7.878;2022-10-30T04:45:14;3.50;;;3.20;;
1220;SDS011;600;48.044;7.878;2022-10-30T04:47:41;7.77;;;3.53;;
1220;SDS011;600;48.044;7.878;2022-10-30T04:50:08;6.53;;;4.20;;
1220;SDS011;600;48.044;7.878;2022-10-30T04:52:35;5.93;;;4.07;;
1220;SDS011;600;48.044;7.878;2022-10-30T04:55:03;8.60;;;3.40;;
1220;SDS011;600;48.044;7.878;2022-10-30T04:57:31;5.33;;;4.00;;
1220;SDS011;600;48.044;7.878;2022-10-30T04:59:58;6.83;;;4.03;;
1220;SDS011;600;48.044;7.878;2022-10-30T05:02:25;5.53;;;4.17;;
1220;SDS011;600;48.044;7.878;2022-10-30T05:04:52;7.03;;;5.07;;
1220;SDS011;600;48.044;7.878;2022-10-30T05:07:18;8.37;;;4.33;;
1220;SDS011;600;48.044;7.878;2022-10-30T05:09:46;13.70;;;4.37;;
1220;SDS011;600;48.044;7.878;2022-10-30T05:12:14;9.53;;;4.63;;
1220;SDS011;600;48.044;7.878;2022-10-30T05:14:43;14.27;;;5.70;;
1220;SDS011;600;48.044;7.878;2022-10-30T05:17:10;8.40;;;5.47;;
1220;SDS011;600;48.044;7.878;2022-10-30T05:19:36;7.00;;;4.60;;
1220;SDS011;600;48.044;7.878;2022-10-30T05:22:03;7.53;;;4.10;;
1220;SDS011;600;48.044;7.878;2022-10-30T05:24:30;9.00;;;4.80;;
1220;SDS011;600;48.044;7.878;2022-10-30T05:26:57;12.23;;;5.00;;
1220;SDS011;600;48.044;7.878;2022-10-30T05:29:25;6.27;;;4.57;;
1220;SDS011;600;48.044;7.878;2022-10-30T05:31:51;9.77;;;4.70;;
1220;SDS011;600;48.044;7.878;2022-10-30T05:34:18;8.20;;;4.80;;
1220;SDS011;600;48.044;7.878;2022-10-30T05:36:45;9.03;;;5.17;;
1220;SDS011;600;48.044;7.878;2022-10-30T05:39:11;5.93;;;4.70;;
1220;SDS011;600;48.044;7.878;2022-10-30T05:41:38;11.83;;;5.20;;
1220;SDS011;600;48.044;7.878;2022-10-30T05:44:05;11.30;;;5.10;;
1220;SDS011;600;48.044;7.878;2022-10-30T05:46:33;7.80;;;4.43;;
1220;SDS011;600;48.044;7.878;2022-10-30T05:49:00;6.00;;;5.20;;
1220;SDS011;600;48.044;7.878;2022-10-30T05:51:26;7.77;;;5.00;;
1220;SDS011;600;48.044;7.878;2022-10-30T05:53:53;9.33;;;5.60;;
1220;SDS011;600;48.044;7.878;2022-10-30T05:56:20;6.70;;;4.17;;
1220;SDS011;600;48.044;7.878;2022-10-30T05:58:47;8.13;;;4.70;;
1220;SDS011;600;48.044;7.878;2022-10-30T06:01:14;7.40;;;5.83;;
1220;SDS011;600;48.044;7.878;2022-10-30T06:03:42;5.73;;;5.10;;
1220;SDS011;600;48.044;7.878;2022-10-30T06:06:09;7.13;;;5.60;;
1220;SDS011;600;48.044;7.878;2022-10-30T06:08:36;6.90;;;5.00;;
1220;SDS011;600;48.044;7.878;2022-10-30T06:11:02;5.83;;;5.07;;
1220;SDS011;600;48.044;7.878;2022-10-30T06:13:29;11.73;;;6.60;;
1220;SDS011;600;48.044;7.878;2022-10-30T06:15:56;8.93;;;6.07;;
1220;SDS011;600;48.044;7.878;2022-10-30T06:18:23;11.90;;;6.13;;
1220;SDS011;600;48.044;7.878;2022-10-30T06:20:52;6.80;;;5.40;;
1220;SDS011;600;48.044;7.878;2022-10-30T06:23:20;8.90;;;6.03;;
1220;SDS011;600;48.044;7.878;2022-10-30T06:25:46;6.00;;;4.63;;
1220;SDS011;600;48.044;7.878;2022-10-30T06:28:13;9.00;;;5.90;;
1220;SDS011;600;48.044;7.878;2022-10-30T06:30:40;6.80;;;5.63;;
1220;SDS011;600;48.044;7.878;2022-10-30T06:33:08;8.23;;;6.00;;
1220;SDS011;600;48.044;7.878;2022-10-30T06:35:35;7.67;;;5.20;;
1220;SDS011;600;48.044;7.878;2022-10-30T06:38:03;10.03;;;5.97;;
1220;SDS011;600;48.044;7.878;2022-10-30T06:40:30;9.13;;;6.30;;
1220;SDS011;600;48.044;7.878;2022-10-30T06:42:56;10.10;;;6.67;;
1220;SDS011;600;48.044;7.878;2022-10-30T06:45:23;8.80;;;5.03;;
1220;SDS011;600;48.044;7.878;2022-10-30T06:47:50;8.57;;;5.77;;
1220;SDS011;600;48.044;7.878;2022-10-30T06:50:18;10.30;;;6.53;;
1220;SDS011;600;48.044;7.878;2022-10-30T06:52:46;8.10;;;6.03;;
1220;SDS011;600;48.044;7.878;2022-10-30T06:55:14;9.67;;;5.23;;
1220;SDS011;600;48.044;7.878;2022-10-30T06:57:42;8.83;;;6.20;;
1220;SDS011;600;48.044;7.878;2022-10-30T07:00:09;11.67;;;5.53;;
1220;SDS011;600;48.044;7.878;2022-10-30T07:02:37;7.83;;;6.07;;
1220;SDS011;600;48.044;7.878;2022-10-30T07:05:04;10.17;;;6.00;;
1220;SDS011;600;48.044;7.878;2022-10-30T07:07:31;7.73;;;5.53;;
1220;SDS011;600;48.044;7.878;2022-10-30T07:09:58;7.90;;;6.00;;
1220;SDS011;600;48.044;7.878;2022-10-30T07:12:26;8.53;;;6.13;;
1220;SDS011;600;48.044;7.878;2022-10-30T07:14:53;6.07;;;5.47;;
1220;SDS011;600;48.044;7.878;2022-10-30T07:17:19;9.33;;;5.83;;
1220;SDS011;600;48.044;7.878;2022-10-30T07:19:46;9.47;;;5.83;;
1220;SDS011;600;48.044;7.878;2022-10-30T07:22:13;9.80;;;6.23;;
1220;SDS011;600;48.044;7.878;2022-10-30T07:24:40;6.60;;;5.43;;
1220;SDS011;600;48.044;7.878;2022-10-30T07:27:06;6.30;;;5.47;;
1220;SDS011;600;48.044;7.878;2022-10-30T07:29:34;11.73;;;6.40;;
1220;SDS011;600;48.044;7.878;2022-10-30T07:32:01;11.27;;;5.70;;
1220;SDS011;600;48.044;7.878;2022-10-30T07:34:28;10.87;;;5.90;;
1220;SDS011;600;48.044;7.878;2022-10-30T07:36:55;9.77;;;6.00;;
1220;SDS011;600;48.044;7.878;2022-10-30T07:39:21;7.30;;;5.60;;
1220;SDS011;600;48.044;7.878;2022-10-30T07:41:48;7.57;;;5.37;;
1220;SDS011;600;48.044;7.878;2022-10-30T07:44:15;8.33;;;5.53;;
1220;SDS011;600;48.044;7.878;2022-10-30T07:46:43;8.70;;;4.97;;
1220;SDS011;600;48.044;7.878;2022-10-30T07:49:10;9.70;;;6.30;;
1220;SDS011;600;48.044;7.878;2022-10-30T07:51:37;10.30;;;5.53;;
1220;SDS011;600;48.044;7.878;2022-10-30T07:54:03;10.27;;;6.87;;
1220;SDS011;600;48.044;7.878;2022-10-30T07:56:30;10.60;;;6.87;;
1220;SDS011;600;48.044;7.878;2022-10-30T07:58:57;9.40;;;6.60;;
1220;SDS011;600;48.044;7.878;2022-10-30T08:01:23;8.73;;;6.30;;
1220;SDS011;600;48.044;7.878;2022-10-30T08:03:51;13.13;;;7.27;;
1220;SDS011;600;48.044;7.878;2022-10-30T08:06:18;10.57;;;8.03;;
1220;SDS011;600;48.044;7.878;2022-10-30T08:08:45;11.20;;;8.70;;
1220;SDS011;600;48.044;7.878;2022-10-30T08:11:12;13.67;;;8.87;;
1220;SDS011;600;48.044;7.878;2022-10-30T08:13:38;11.10;;;8.47;;
1220;SDS011;600;48.044;7.878;2022-10-30T08:16:05;12.90;;;8.40;;
1220;SDS011;600;48.044;7.878;2022-10-30T08:18:32;14.87;;;9.17;;
1220;SDS011;600;48.044;7.878;2022-10-30T08:21:00;8.90;;;7.20;;
1220;SDS011;600;48.044;7.878;2022-10-30T08:23:27;9.30;;;7.83;;
1220;SDS011;600;48.044;7.878;2022-10-30T08:25:55;9.00;;;7.57;;
1220;SDS011;600;48.044;7.878;2022-10-30T08:28:25;11.37;;;7.47;;
1220;SDS011;600;48.044;7.878;2022-10-30T08:30:52;9.23;;;7.80;;
1220;SDS011;600;48.044;7.878;2022-10-30T08:33:18;10.27;;;8.60;;
1220;SDS011;600;48.044;7.878;2022-10-30T08:35:46;13.77;;;7.57;;
1220;SDS011;600;48.044;7.878;2022-10-30T08:38:15;9.90;;;7.20;;
1220;SDS011;600;48.044;7.878;2022-10-30T08:40:43;9.17;;;7.50;;
1220;SDS011;600;48.044;7.878;2022-10-30T08:43:09;11.90;;;7.63;;
1220;SDS011;600;48.044;7.878;2022-10-30T08:45:36;10.33;;;7.70;;
1220;SDS011;600;48.044;7.878;2022-10-30T08:48:04;10.57;;;6.97;;
1220;SDS011;600;48.044;7.878;2022-10-30T08:50:31;11.33;;;7.20;;
1220;SDS011;600;48.044;7.878;2022-10-30T08:52:59;9.93;;;8.77;;
1220;SDS011;600;48.044;7.878;2022-10-30T08:55:29;10.77;;;7.90;;
1220;SDS011;600;48.044;7.878;2022-10-30T08:57:56;8.60;;;7.70;;
1220;SDS011;600;48.044;7.878;2022-10-30T09:00:23;13.50;;;7.90;;
1220;SDS011;600;48.044;7.878;2022-10-30T09:02:49;14.07;;;7.63;;
1220;SDS011;600;48.044;7.878;2022-10-30T09:05:16;13.93;;;7.53;;
1220;SDS011;600;48.044;7.878;2022-10-30T09:07:43;11.17;;;7.00;;
1220;SDS011;600;48.044;7.878;2022-10-30T09:10:11;11.47;;;7.13;;
1220;SDS011;600;48.044;7.878;2022-10-30T09:12:39;10.00;;;6.73;;
1220;SDS011;600;48.044;7.878;2022-10-30T09:15:06;10.20;;;7.10;;
1220;SDS011;600;48.044;7.878;2022-10-30T09:17:33;11.03;;;6.53;;
1220;SDS011;600;48.044;7.878;2022-10-30T09:20:00;10.70;;;6.27;;
1220;SDS011;600;48.044;7.878;2022-10-30T09:22:27;9.17;;;7.10;;
1220;SDS011;600;48.044;7.878;2022-10-30T09:24:53;8.87;;;7.00;;
1220;SDS011;600;48.044;7.878;2022-10-30T09:27:20;10.30;;;6.43;;
1220;SDS011;600;48.044;7.878;2022-10-30T09:29:48;8.30;;;5.70;;
1220;SDS011;600;48.044;7.878;2022-10-30T09:32:15;8.93;;;6.23;;
1220;SDS011;600;48.044;7.878;2022-10-30T09:34:42;8.17;;;6.03;;
1220;SDS011;600;48.044;7.878;2022-10-30T09:37:09;7.47;;;6.47;;
1220;SDS011;600;48.044;7.878;2022-10-30T09:39:35;11.13;;;6.40;;
1220;SDS011;600;48.044;7.878;2022-10-30T09:42:07;9.30;;;7.17;;
1220;SDS011;600;48.044;7.878;2022-10-30T09:44:49;7.90;;;6.63;;
1220;SDS011;600;48.044;7.878;2022-10-30T09:47:27;6.13;;;5.53;;
1220;SDS011;600;48.044;7.878;2022-10-30T09:50:06;7.20;;;6.47;;
1220;SDS011;600;48.044;7.878;2022-10-30T09:52:51;8.67;;;6.83;;
1220;SDS011;600;48.044;7.878;2022-10-30T09:55:29;6.80;;;6.10;;
1220;SDS011;600;48.044;7.878;2022-10-30T09:58:04;11.67;;;6.47;;
1220;SDS011;600;48.044;7.878;2022-10-30T10:00:42;9.60;;;6.83;;
1220;SDS011;600;48.044;7.878;2022-10-30T10:03:18;11.77;;;8.13;;
1220;SDS011;600;48.044;7.878;2022-10-30T10:05:53;12.23;;;7.00;;
1220;SDS011;600;48.044;7.878;2022-10-30T10:08:23;15.60;;;7.93;;
1220;SDS011;600;48.044;7.878;2022-10-30T10:10:58;10.57;;;7.13;;
1220;SDS011;600;48.044;7.878;2022-10-30T10:13:29;10.67;;;7.00;;
1220;SDS011;600;48.044;7.878;2022-10-30T10:16:04;16.23;;;7.97;;
1220;SDS011;600;48.044;7.878;2022-10-30T10:18:39;9.47;;;7.10;;
1220;SDS011;600;48.044;7.878;2022-10-30T10:21:12;10.70;;;7.30;;
1220;SDS011;600;48.044;7.878;2022-10-30T10:23:43;9.67;;;7.00;;
1220;SDS011;600;48.044;7.878;2022-10-30T10:26:17;11.60;;;7.40;;
1220;SDS011;600;48.044;7.878;2022-10-30T10:29:05;10.83;;;6.63;;
1220;SDS011;600;48.044;7.878;2022-10-30T10:31:47;8.77;;;7.67;;
1220;SDS011;600;48.044;7.878;2022-10-30T10:34:27;10.37;;;6.87;;
1220;SDS011;600;48.044;7.878;2022-10-30T10:37:03;12.47;;;6.57;;
1220;SDS011;600;48.044;7.878;2022-10-30T10:39:39;11.80;;;7.20;;
1220;SDS011;600;48.044;7.878;2022-10-30T10:42:22;9.20;;;6.67;;
1220;SDS011;600;48.044;7.878;2022-10-30T10:45:01;10.03;;;6.90;;
1220;SDS011;600;48.044;7.878;2022-10-30T10:50:36;12.33;;;6.80;;
1220;SDS011;600;48.044;7.878;2022-10-30T10:53:12;10.30;;;6.63;;
1220;SDS011;600;48.044;7.878;2022-10-30T10:55:44;17.33;;;6.30;;
1220;SDS011;600;48.044;7.878;2022-10-30T10:58:17;8.73;;;7.27;;
1220;SDS011;600;48.044;7.878;2022-10-30T11:00:53;13.10;;;6.90;;
1220;SDS011;600;48.044;7.878;2022-10-30T11:03:24;8.43;;;5.80;;
1220;SDS011;600;48.044;7.878;2022-10-30T11:05:58;7.70;;;5.53;;
1220;SDS011;600;48.044;7.878;2022-10-30T11:08:30;10.37;;;8.03;;
1220;SDS011;600;48.044;7.878;2022-10-30T11:10:59;12.07;;;7.43;;
1220;SDS011;600;48.044;7.878;2022-10-30T11:13:28;8.90;;;6.70;;
1220;SDS011;600;48.044;7.878;2022-10-30T11:15:57;8.73;;;6.10;;
1220;SDS011;600;48.044;7.878;2022-10-30T11:18:33;8.43;;;6.70;;
1220;SDS011;600;48.044;7.878;2022-10-30T11:21:02;8.57;;;6.70;;
1220;SDS011;600;48.044;7.878;2022-10-30T11:23:36;9.77;;;6.90;;
1220;SDS011;600;48.044;7.878;2022-10-30T11:26:25;10.97;;;6.47;;
1220;SDS011;600;48.044;7.878;2022-10-30T11:28:54;7.83;;;6.40;;
1220;SDS011;600;48.044;7.878;2022-10-30T11:31:24;10.53;;;7.03;;
1220;SDS011;600;48.044;7.878;2022-10-30T11:33:59;7.87;;;6.60;;
1220;SDS011;600;48.044;7.878;2022-10-30T11:36:55;8.93;;;6.77;;
1220;SDS011;600;48.044;7.878;2022-10-30T11:39:23;10.53;;;6.70;;
1220;SDS011;600;48.044;7.878;2022-10-30T11:41:55;9.33;;;7.20;;
1220;SDS011;600;48.044;7.878;2022-10-30T11:44:26;9.10;;;6.87;;
1220;SDS011;600;48.044;7.878;2022-10-30T11:46:56;6.80;;;5.53;;
1220;SDS011;600;48.044;7.878;2022-10-30T11:49:31;8.03;;;6.60;;
1220;SDS011;600;48.044;7.878;2022-10-30T11:52:06;10.47;;;6.80;;
1220;SDS011;600;48.044;7.878;2022-10-30T11:54:34;8.63;;;5.03;;
1220;SDS011;600;48.044;7.878;2022-10-30T11:57:04;5.90;;;5.30;;
1220;SDS011;600;48.044;7.878;2022-10-30T11:59:45;7.53;;;5.47;;
1220;SDS011;600;48.044;7.878;2022-10-30T12:02:20;5.33;;;4.90;;
1220;SDS011;600;48.044;7.878;2022-10-30T12:04:52;6.50;;;5.00;;
1220;SDS011;600;48.044;7.878;2022-10-30T12:07:23;8.83;;;5.30;;
1220;SDS011;600;48.044;7.878;2022-10-30T12:09:53;6.13;;;5.53;;
1220;SDS011;600;48.044;7.878;2022-10-30T12:12:22;7.07;;;5.53;;
1220;SDS011;600;48.044;7.878;2022-10-30T12:14:51;11.13;;;6.53;;
1220;SDS011;600;48.044;7.878;2022-10-30T12:17:18;9.27;;;6.40;;
1220;SDS011;600;48.044;7.878;2022-10-30T12:19:47;6.80;;;5.60;;
1220;SDS011;600;48.044;7.878;2022-10-30T12:22:24;10.63;;;5.90;;
1220;SDS011;600;48.044;7.878;2022-10-30T12:24:54;7.67;;;6.23;;
1220;SDS011;600;48.044;7.878;2022-10-30T12:27:25;7.30;;;5.90;;
1220;SDS011;600;48.044;7.878;2022-10-30T12:29:57;6.50;;;5.40;;
1220;SDS011;600;48.044;7.878;2022-10-30T12:32:32;7.60;;;5.80;;
